createdAt,value
2019-01-23T00:02:26.686Z,30.30
2019-01-23T00:07:34.290Z,33.87
2019-01-23T00:12:41.489Z,35.27
2019-01-23T00:17:48.625Z,30.60
2019-01-23T00:22:55.629Z,32.33
2019-01-23T00:28:02.742Z,32.20
2019-01-23T00:33:09.831Z,33.30
2019-01-23T00:38:16.928Z,32.43
2019-01-23T00:43:24.124Z,32.17
2019-01-23T00:48:31.884Z,32.03
2019-01-23T00:53:39.069Z,33.02
2019-01-23T00:58:49.329Z,33.13
2019-01-23T01:03:55.200Z,35.13
2019-01-23T01:09:09.037Z,36.67
2019-01-23T01:14:16.243Z,34.77
2019-01-23T01:19:23.447Z,38.05
2019-01-23T01:24:30.736Z,35.63
2019-01-23T01:29:37.918Z,32.67
2019-01-23T01:34:45.037Z,34.20
2019-01-23T01:39:52.297Z,36.40
2019-01-23T01:45:11.874Z,36.03
2019-01-23T01:50:20.972Z,35.78
2019-01-23T01:55:28.142Z,34.60
2019-01-23T02:00:35.357Z,38.47
2019-01-23T02:05:42.456Z,35.93
2019-01-23T02:10:50.213Z,38.43
2019-01-23T02:15:57.453Z,38.57
2019-01-23T02:21:05.535Z,35.83
2019-01-23T02:26:13.154Z,38.67
2019-01-23T02:31:20.459Z,37.37
2019-01-23T02:36:27.685Z,38.20
2019-01-23T02:41:34.742Z,35.97
2019-01-23T02:46:41.835Z,36.43
2019-01-23T02:51:48.932Z,34.63
2019-01-23T02:56:56.121Z,35.90
2019-01-23T03:02:03.426Z,36.73
2019-01-23T03:07:10.623Z,34.13
2019-01-23T03:12:19.018Z,33.50
2019-01-23T03:17:26.153Z,35.45
2019-01-23T03:22:33.705Z,35.40
2019-01-23T03:27:41.221Z,34.80
2019-01-23T03:32:48.728Z,35.63
2019-01-23T03:37:55.997Z,33.83
2019-01-23T03:43:03.093Z,33.73
2019-01-23T03:48:10.182Z,33.20
2019-01-23T03:53:17.374Z,31.83
2019-01-23T03:58:24.494Z,33.63
2019-01-23T04:03:31.728Z,33.23
2019-01-23T04:08:38.982Z,33.40
2019-01-23T04:13:46.162Z,31.07
2019-01-23T04:18:53.823Z,34.23
2019-01-23T04:24:00.992Z,34.17
2019-01-23T04:29:08.200Z,37.73
2019-01-23T04:34:15.599Z,60.17
2019-01-23T04:39:22.813Z,69.47
2019-01-23T04:44:29.973Z,137.13
2019-01-23T04:49:37.231Z,212.03
2019-01-23T04:54:44.508Z,68.13
2019-01-23T04:59:51.708Z,51.80
2019-01-23T05:04:59.446Z,43.33
2019-01-23T05:10:06.883Z,52.67
2019-01-23T05:15:14.110Z,56.93
2019-01-23T05:20:21.195Z,65.90
2019-01-23T05:25:28.807Z,59.97
2019-01-23T05:30:36.384Z,55.60
2019-01-23T05:35:43.479Z,50.50
2019-01-23T05:40:50.690Z,50.97
2019-01-23T05:45:57.889Z,51.87
2019-01-23T05:51:06.280Z,74.13
2019-01-23T05:56:13.864Z,44.13
2019-01-23T06:01:21.069Z,44.40
2019-01-23T06:06:28.387Z,53.17
2019-01-23T06:11:35.847Z,57.53
2019-01-23T06:16:43.028Z,58.00
2019-01-23T06:21:50.317Z,58.60
2019-01-23T06:26:57.574Z,56.63
2019-01-23T06:32:05.797Z,79.00
2019-01-23T06:37:12.996Z,67.95
2019-01-23T06:42:20.474Z,70.70
2019-01-23T06:47:27.787Z,75.07
2019-01-23T06:52:36.540Z,78.03
2019-01-23T06:57:45.084Z,87.37
2019-01-23T07:02:52.448Z,84.70
2019-01-23T07:07:59.684Z,82.07
2019-01-23T07:13:06.931Z,68.70
2019-01-23T07:18:14.154Z,82.13
2019-01-23T07:23:21.637Z,91.73
2019-01-23T07:28:29.095Z,74.70
2019-01-23T07:33:37.485Z,61.87
2019-01-23T07:38:44.706Z,54.77
2019-01-23T07:43:51.988Z,49.30
2019-01-23T07:48:59.346Z,53.43
2019-01-23T07:54:06.798Z,51.37
2019-01-23T07:59:13.956Z,54.03
2019-01-23T08:04:21.003Z,51.07
2019-01-23T08:09:28.092Z,56.77
2019-01-23T08:14:35.195Z,48.13
2019-01-23T08:19:44.787Z,48.07
2019-01-23T08:24:52.030Z,46.30
2019-01-23T08:29:59.328Z,40.87
2019-01-23T08:35:07.737Z,62.93
2019-01-23T08:40:16.934Z,38.07
2019-01-23T08:45:24.125Z,37.70
2019-01-23T08:50:34.278Z,38.57
2019-01-23T08:55:42.054Z,52.63
2019-01-23T09:00:49.325Z,36.90
2019-01-23T09:05:56.422Z,35.13
2019-01-23T09:11:03.786Z,39.10
2019-01-23T09:16:10.931Z,36.50
2019-01-23T09:21:18.108Z,35.33
2019-01-23T09:26:25.314Z,30.37
2019-01-23T09:31:56.019Z,31.87
2019-01-23T09:37:38.403Z,32.43
2019-01-23T09:43:10.364Z,34.87
2019-01-23T09:48:35.470Z,35.00
2019-01-23T09:53:58.840Z,33.40
2019-01-23T09:59:06.204Z,26.47
2019-01-23T10:04:13.431Z,39.73
2019-01-23T10:09:20.556Z,26.10
2019-01-23T10:14:30.329Z,22.53
2019-01-23T10:19:37.599Z,28.47
2019-01-23T10:24:44.922Z,22.60
2019-01-23T10:29:53.406Z,27.03
2019-01-23T10:35:01.699Z,24.27
2019-01-23T10:40:12.527Z,26.10
2019-01-23T10:45:19.750Z,27.67
2019-01-23T10:50:26.999Z,44.70
2019-01-23T10:55:34.330Z,29.23
2019-01-23T11:00:41.915Z,23.70
2019-01-23T11:05:49.327Z,21.00
2019-01-23T11:10:56.425Z,28.90
2019-01-23T11:16:04.138Z,22.80
2019-01-23T11:21:11.407Z,31.75
2019-01-23T11:26:19.258Z,37.63
2019-01-23T11:31:26.696Z,30.00
2019-01-23T11:36:33.981Z,47.13
2019-01-23T11:41:42.062Z,24.73
2019-01-23T11:46:49.489Z,21.80
2019-01-23T11:51:56.768Z,27.40
2019-01-23T11:57:06.124Z,26.27
2019-01-23T12:02:13.971Z,19.37
2019-01-23T12:07:21.218Z,29.63
2019-01-23T12:12:28.570Z,20.33
2019-01-23T12:17:35.892Z,20.57
2019-01-23T12:22:45.322Z,21.60
2019-01-23T12:27:52.604Z,25.23
2019-01-23T12:33:00.566Z,22.67
2019-01-23T12:38:07.936Z,22.40
2019-01-23T12:43:15.407Z,24.37
2019-01-23T12:48:22.880Z,21.17
2019-01-23T12:53:30.342Z,81.53
2019-01-23T12:58:37.773Z,113.80
2019-01-23T13:03:45.758Z,488.37
2019-01-23T13:08:53.334Z,999.90
2019-01-23T13:14:00.521Z,429.60
2019-01-23T13:19:07.743Z,447.17
2019-01-23T13:24:14.975Z,262.53
2019-01-23T13:29:23.247Z,114.33
2019-01-23T13:34:30.474Z,48.47
2019-01-23T13:39:38.036Z,44.43
2019-01-23T13:44:45.217Z,30.03
2019-01-23T13:49:52.659Z,29.07
2019-01-23T13:55:00.258Z,34.60
2019-01-23T14:00:10.689Z,29.57
2019-01-23T14:05:18.159Z,38.67
2019-01-23T14:10:25.528Z,43.70
2019-01-23T14:15:35.710Z,34.73
2019-01-23T14:20:42.916Z,33.07
2019-01-23T14:25:50.083Z,28.00
2019-01-23T14:30:57.381Z,34.20
2019-01-23T14:36:04.709Z,46.73
2019-01-23T14:41:14.026Z,32.70
2019-01-23T14:46:21.243Z,45.47
2019-01-23T14:51:28.415Z,64.37
2019-01-23T14:56:35.615Z,67.57
2019-01-23T15:01:43.094Z,52.70
2019-01-23T15:06:50.470Z,58.30
2019-01-23T15:11:57.719Z,52.60
2019-01-23T15:17:06.196Z,51.93
2019-01-23T15:22:13.448Z,45.50
2019-01-23T15:27:20.639Z,42.73
2019-01-23T15:32:28.423Z,46.40
2019-01-23T15:37:35.614Z,45.90
2019-01-23T15:42:42.813Z,49.70
2019-01-23T15:47:50.148Z,61.05
2019-01-23T15:52:57.447Z,47.10
2019-01-23T15:58:05.011Z,55.07
2019-01-23T16:03:12.964Z,51.10
2019-01-23T16:08:20.350Z,44.07
2019-01-23T16:13:27.871Z,47.57
2019-01-23T16:18:35.460Z,43.73
2019-01-23T16:23:42.858Z,44.17
2019-01-23T16:28:50.020Z,60.67
2019-01-23T16:33:57.233Z,56.60
2019-01-23T16:39:06.304Z,47.70
2019-01-23T16:44:13.800Z,53.73
2019-01-23T16:49:21.112Z,52.78
2019-01-23T16:54:28.400Z,57.53
2019-01-23T16:59:35.715Z,62.03
2019-01-23T17:04:42.952Z,61.33
2019-01-23T17:09:51.427Z,51.93
2019-01-23T17:14:58.750Z,52.23
2019-01-23T17:20:08.071Z,50.60
2019-01-23T17:25:15.745Z,57.00
2019-01-23T17:30:22.875Z,59.20
2019-01-23T17:35:30.172Z,65.97
2019-01-23T17:40:37.344Z,85.30
2019-01-23T17:45:45.506Z,72.00
2019-01-23T17:50:52.858Z,66.33
2019-01-23T17:56:00.961Z,68.37
2019-01-23T18:01:08.484Z,60.67
2019-01-23T18:06:15.740Z,70.10
2019-01-23T18:11:22.847Z,58.40
2019-01-23T18:16:32.332Z,50.80
2019-01-23T18:21:39.926Z,52.73
2019-01-23T18:26:47.404Z,60.80
2019-01-23T18:31:57.899Z,61.90
2019-01-23T18:37:44.659Z,48.40
2019-01-23T18:43:32.500Z,58.37
2019-01-23T18:49:38.841Z,52.33
2019-01-23T18:54:45.913Z,42.90
2019-01-23T18:59:58.988Z,38.03
2019-01-23T19:05:02.388Z,38.27
2019-01-23T19:10:13.227Z,35.47
2019-01-23T19:15:20.707Z,43.87
2019-01-23T19:20:27.970Z,52.37
2019-01-23T19:25:35.078Z,48.73
2019-01-23T19:30:42.430Z,73.03
2019-01-23T19:35:49.744Z,55.20
2019-01-23T19:41:00.736Z,35.07
2019-01-23T19:46:08.566Z,36.63
2019-01-23T19:51:15.645Z,40.57
2019-01-23T19:56:22.851Z,37.20
2019-01-23T20:01:30.600Z,36.37
2019-01-23T20:06:37.729Z,32.23
2019-01-23T20:11:45.058Z,34.60
2019-01-23T20:16:52.151Z,30.67
2019-01-23T20:21:59.261Z,34.70
2019-01-23T20:27:06.494Z,32.80
2019-01-23T20:32:13.617Z,34.57
2019-01-23T20:37:23.480Z,36.63
2019-01-23T20:42:29.396Z,30.30
2019-01-23T20:47:36.738Z,28.80
2019-01-23T20:52:43.904Z,28.50
2019-01-23T20:57:51.147Z,33.17
2019-01-23T21:02:58.317Z,31.70
2019-01-23T21:08:06.300Z,29.77
2019-01-23T21:13:13.437Z,28.80
2019-01-23T21:18:21.110Z,38.83
2019-01-23T21:23:28.291Z,36.33
2019-01-23T21:28:35.589Z,39.60
2019-01-23T21:33:43.917Z,57.10
2019-01-23T21:38:51.013Z,57.80
2019-01-23T21:43:58.222Z,61.00
2019-01-23T21:49:06.336Z,43.20
2019-01-23T21:54:15.161Z,44.17
2019-01-23T21:59:22.336Z,45.37
2019-01-23T22:04:29.402Z,55.43
2019-01-23T22:09:36.474Z,48.57
2019-01-23T22:14:43.736Z,44.40
2019-01-23T22:19:52.794Z,37.63
2019-01-23T22:25:01.152Z,38.45
2019-01-23T22:30:12.329Z,38.37
2019-01-23T22:35:19.536Z,37.55
2019-01-23T22:40:26.729Z,40.50
2019-01-23T22:45:33.812Z,41.07
2019-01-23T22:50:40.918Z,44.80
2019-01-23T22:55:48.121Z,40.10
2019-01-23T23:01:12.653Z,44.27
2019-01-23T23:06:19.745Z,40.67
2019-01-23T23:11:28.305Z,65.77
2019-01-23T23:16:35.399Z,49.17
2019-01-23T23:21:42.773Z,46.60
2019-01-23T23:26:49.905Z,43.93
2019-01-23T23:31:57.003Z,41.63
2019-01-23T23:37:04.105Z,40.17
2019-01-23T23:42:11.183Z,44.57
2019-01-23T23:47:18.401Z,50.10
2019-01-23T23:52:25.615Z,33.13
2019-01-23T23:57:32.734Z,37.03
